Time,TemperatureF,DewpointF,PressureIn,WindDirection,WindDirectionDegrees,WindSpeedMPH,WindSpeedGustMPH,Humidity,HourlyPrecipIn,Conditions,Clouds,dailyrainin,SoftwareType,DateUTC
2013-08-04 00:01:00,67.0,59.3,29.87,NE,45,0.0,0.0,76,0.00,,,0.00,WUHU216HW,2013-08-04 04:01:00,
2013-08-04 00:06:00,66.8,59.1,29.86,ENE,68,0.0,0.0,76,0.00,,,0.00,WUHU216HW,2013-08-04 04:06:00,
2013-08-04 00:11:00,66.6,58.9,29.86,East,90,0.0,0.0,76,0.00,,,0.00,WUHU216HW,2013-08-04 04:11:00,
2013-08-04 00:16:00,66.4,58.7,29.86,East,90,0.0,0.0,76,0.00,,,0.00,WUHU216HW,2013-08-04 04:16:00,
2013-08-04 00:21:00,66.2,58.5,29.86,ENE,68,0.0,0.0,76,0.00,,,0.00,WUHU216HW,2013-08-04 04:21:00,
2013-08-04 00:26:00,66.2,58.5,29.86,ENE,68,0.0,0.0,76,0.00,,,0.00,WUHU216HW,2013-08-04 04:26:00,
2013-08-04 00:31:00,66.1,58.4,29.86,ENE,68,0.0,0.0,76,0.00,,,0.00,WUHU216HW,2013-08-04 04:31:00,
2013-08-04 00:36:00,65.9,58.2,29.86,North,0,0.0,0.0,76,0.00,,,0.00,WUHU216HW,2013-08-04 04:36:00,
2013-08-04 00:41:00,65.7,58.0,29.86,North,0,0.0,0.0,76,0.00,,,0.00,WUHU216HW,2013-08-04 04:41:00,
2013-08-04 00:46:00,65.5,57.8,29.86,NE,45,0.0,0.0,76,0.00,,,0.00,WUHU216HW,2013-08-04 04:46:00,
2013-08-04 00:52:00,65.3,57.7,29.85,NE,45,0.0,0.0,76,0.00,,,0.00,WUHU216HW,2013-08-04 04:52:00,
2013-08-04 00:57:00,65.2,57.6,29.85,NNW,338,0.0,0.0,76,0.00,,,0.00,WUHU216HW,2013-08-04 04:57:00,
2013-08-04 01:02:00,65.0,57.4,29.85,NNW,338,0.0,0.0,76,0.00,,,0.00,WUHU216HW,2013-08-04 05:02:00,
2013-08-04 01:07:00,64.8,57.2,29.85,NNW,338,0.0,0.0,76,0.00,,,0.00,WUHU216HW,2013-08-04 05:07:00,
2013-08-04 01:12:00,64.8,57.2,29.85,NNW,338,0.0,0.0,76,0.00,,,0.00,WUHU216HW,2013-08-04 05:12:00,
2013-08-04 01:17:00,64.4,56.8,29.85,NNW,338,0.0,0.0,76,0.00,,,0.00,WUHU216HW,2013-08-04 05:17:00,
2013-08-04 01:22:00,64.4,56.8,29.85,NNW,338,0.2,0.4,76,0.00,,,0.00,WUHU216HW,2013-08-04 05:22:00,
2013-08-04 01:27:00,64.3,56.7,29.85,SE,135,0.0,0.4,76,0.00,,,0.00,WUHU216HW,2013-08-04 05:27:00,
2013-08-04 01:32:00,64.1,56.5,29.85,SE,135,0.0,0.2,76,0.00,,,0.00,WUHU216HW,2013-08-04 05:32:00,
2013-08-04 01:37:00,63.9,56.3,29.84,NE,45,0.7,0.9,76,0.00,,,0.00,WUHU216HW,2013-08-04 05:37:00,
2013-08-04 01:42:00,63.9,56.3,29.84,NE,45,0.0,0.9,76,0.00,,,0.00,WUHU216HW,2013-08-04 05:42:00,
2013-08-04 01:47:00,63.7,56.1,29.84,NE,45,0.0,0.7,76,0.00,,,0.00,WUHU216HW,2013-08-04 05:47:00,
2013-08-04 01:52:00,63.5,55.9,29.84,NE,45,0.0,0.0,76,0.00,,,0.00,WUHU216HW,2013-08-04 05:52:00,
2013-08-04 01:57:00,63.4,55.8,29.84,NE,45,0.0,0.0,76,0.00,,,0.00,WUHU216HW,2013-08-04 05:57:00,
2013-08-04 02:02:00,63.4,55.8,29.84,NNE,23,0.0,0.0,76,0.00,,,0.00,WUHU216HW,2013-08-04 06:02:00,
2013-08-04 02:07:00,63.2,55.6,29.85,NNE,23,0.0,0.0,76,0.00,,,0.00,WUHU216HW,2013-08-04 06:07:00,
2013-08-04 02:12:00,63.0,55.4,29.85,NNE,23,0.0,0.0,76,0.00,,,0.00,WUHU216HW,2013-08-04 06:12:00,
2013-08-04 02:17:00,62.8,55.2,29.85,NNE,23,0.0,0.0,76,0.00,,,0.00,WUHU216HW,2013-08-04 06:17:00,
2013-08-04 02:22:00,62.8,55.2,29.85,NNE,23,1.1,1.1,76,0.00,,,0.00,WUHU216HW,2013-08-04 06:22:00,
2013-08-04 02:27:00,62.6,55.0,29.85,North,0,0.4,1.3,76,0.00,,,0.00,WUHU216HW,2013-08-04 06:27:00,
2013-08-04 02:32:00,62.5,54.9,29.85,ESE,113,0.0,1.3,76,0.00,,,0.00,WUHU216HW,2013-08-04 06:32:00,
2013-08-04 02:37:00,62.3,54.7,29.85,ESE,113,0.0,0.0,76,0.00,,,0.00,WUHU216HW,2013-08-04 06:37:00,
2013-08-04 02:42:00,62.3,55.1,29.85,ESE,113,0.0,0.0,77,0.00,,,0.00,WUHU216HW,2013-08-04 06:42:00,
2013-08-04 02:47:00,62.1,54.9,29.85,ESE,113,0.0,0.0,77,0.00,,,0.00,WUHU216HW,2013-08-04 06:47:00,
2013-08-04 02:52:00,61.9,54.7,29.86,ENE,68,0.0,0.0,77,0.00,,,0.00,WUHU216HW,2013-08-04 06:52:00,
2013-08-04 02:57:00,61.9,54.7,29.85,NNW,338,0.0,0.0,77,0.00,,,0.00,WUHU216HW,2013-08-04 06:57:00,
2013-08-04 03:02:00,61.6,54.4,29.85,NNW,338,0.0,0.0,77,0.00,,,0.00,WUHU216HW,2013-08-04 07:02:00,
2013-08-04 03:07:00,61.6,54.4,29.85,NNW,338,0.0,0.0,77,0.00,,,0.00,WUHU216HW,2013-08-04 07:07:00,
2013-08-04 03:12:00,61.4,54.2,29.85,NNW,338,0.0,0.0,77,0.00,,,0.00,WUHU216HW,2013-08-04 07:12:00,
2013-08-04 03:17:00,61.4,54.2,29.85,NNW,338,0.0,0.0,77,0.00,,,0.00,WUHU216HW,2013-08-04 07:17:00,
2013-08-04 03:22:00,61.2,54.0,29.85,NNW,338,0.2,0.2,77,0.00,,,0.00,WUHU216HW,2013-08-04 07:22:00,
2013-08-04 03:27:00,61.0,53.8,29.85,NNW,338,0.0,0.4,77,0.00,,,0.00,WUHU216HW,2013-08-04 07:27:00,
2013-08-04 03:32:00,61.0,53.8,29.84,NNW,338,0.0,0.4,77,0.00,,,0.00,WUHU216HW,2013-08-04 07:32:00,
2013-08-04 03:37:00,60.8,53.6,29.85,NNW,338,0.0,0.0,77,0.00,,,0.00,WUHU216HW,2013-08-04 07:37:00,
2013-08-04 03:42:00,60.7,53.5,29.85,NNW,338,0.0,0.0,77,0.00,,,0.00,WUHU216HW,2013-08-04 07:42:00,
2013-08-04 03:47:00,60.7,53.5,29.84,NNW,338,0.2,0.2,77,0.00,,,0.00,WUHU216HW,2013-08-04 07:47:00,
2013-08-04 03:52:00,60.5,53.3,29.84,NNW,329,0.6,0.7,77,0.00,,,0.00,WUHU216HW,2013-08-04 07:52:00,
2013-08-04 03:57:00,60.3,53.1,29.85,NW,315,0.0,0.7,77,0.00,,,0.00,WUHU216HW,2013-08-04 07:57:00,
2013-08-04 04:02:00,60.1,52.9,29.84,NW,315,0.0,0.2,77,0.00,,,0.00,WUHU216HW,2013-08-04 08:02:00,
2013-08-04 04:07:00,60.1,52.9,29.85,NE,45,0.0,0.0,77,0.00,,,0.00,WUHU216HW,2013-08-04 08:07:00,
2013-08-04 04:12:00,60.1,52.9,29.85,NE,45,0.0,0.0,77,0.00,,,0.00,WUHU216HW,2013-08-04 08:12:00,
2013-08-04 04:17:00,59.9,52.7,29.85,North,0,0.0,0.0,77,0.00,,,0.00,WUHU216HW,2013-08-04 08:17:00,
2013-08-04 04:22:00,59.8,53.0,29.85,West,270,0.0,0.2,78,0.00,,,0.00,WUHU216HW,2013-08-04 08:22:00,
2013-08-04 04:27:00,59.8,53.0,29.85,NW,315,0.0,0.2,78,0.00,,,0.00,WUHU216HW,2013-08-04 08:27:00,
2013-08-04 04:32:00,59.8,53.0,29.84,NW,315,0.0,0.0,78,0.00,,,0.00,WUHU216HW,2013-08-04 08:32:00,
2013-08-04 04:37:00,59.4,52.6,29.85,SE,135,0.7,0.9,78,0.00,,,0.00,WUHU216HW,2013-08-04 08:37:00,
2013-08-04 04:42:00,59.4,52.6,29.85,ESE,113,0.0,0.9,78,0.00,,,0.00,WUHU216HW,2013-08-04 08:42:00,
2013-08-04 04:47:00,59.4,52.6,29.85,ESE,113,0.0,0.7,78,0.00,,,0.00,WUHU216HW,2013-08-04 08:47:00,
2013-08-04 04:52:00,59.2,52.4,29.85,ESE,113,0.0,0.0,78,0.00,,,0.00,WUHU216HW,2013-08-04 08:52:00,
2013-08-04 04:57:00,59.2,52.4,29.85,ESE,113,0.0,0.0,78,0.00,,,0.00,WUHU216HW,2013-08-04 08:57:00,
2013-08-04 05:02:00,59.0,52.2,29.86,ESE,113,0.0,0.0,78,0.00,,,0.00,WUHU216HW,2013-08-04 09:02:00,
2013-08-04 05:07:00,59.0,52.2,29.86,ESE,113,0.0,0.4,78,0.00,,,0.00,WUHU216HW,2013-08-04 09:07:00,
2013-08-04 05:12:00,59.0,52.2,29.86,ESE,113,0.0,0.4,78,0.00,,,0.00,WUHU216HW,2013-08-04 09:12:00,
2013-08-04 05:17:00,58.9,52.1,29.86,SSE,158,0.2,0.2,78,0.00,,,0.00,WUHU216HW,2013-08-04 09:17:00,
2013-08-04 05:22:00,58.9,52.1,29.86,NE,45,0.0,0.2,78,0.00,,,0.00,WUHU216HW,2013-08-04 09:22:00,
2013-08-04 05:27:00,58.9,52.1,29.86,NNE,23,0.9,0.9,78,0.00,,,0.00,WUHU216HW,2013-08-04 09:27:00,
2013-08-04 05:32:00,58.9,52.1,29.86,NNE,23,0.0,0.9,78,0.00,,,0.00,WUHU216HW,2013-08-04 09:32:00,
2013-08-04 05:37:00,58.7,51.9,29.86,NNE,23,0.0,0.2,78,0.00,,,0.00,WUHU216HW,2013-08-04 09:37:00,
2013-08-04 05:42:00,58.7,51.9,29.86,NNW,338,0.0,0.0,78,0.00,,,0.00,WUHU216HW,2013-08-04 09:42:00,
2013-08-04 05:47:00,58.7,51.9,29.86,North,0,0.4,0.4,78,0.00,,,0.00,WUHU216HW,2013-08-04 09:47:00,
2013-08-04 05:52:00,58.5,51.7,29.86,North,0,0.0,0.4,78,0.00,,,0.00,WUHU216HW,2013-08-04 09:52:00,
2013-08-04 05:57:00,58.5,51.7,29.86,North,0,0.0,0.4,78,0.00,,,0.00,WUHU216HW,2013-08-04 09:57:00,
2013-08-04 06:02:00,58.5,51.7,29.85,North,0,0.4,0.4,78,0.00,,,0.00,WUHU216HW,2013-08-04 10:02:00,
2013-08-04 06:07:00,58.3,51.5,29.85,NNE,17,0.8,1.3,78,0.00,,,0.00,WUHU216HW,2013-08-04 10:07:00,
2013-08-04 06:12:00,58.3,51.8,29.85,NNW,338,0.2,1.3,79,0.00,,,0.00,WUHU216HW,2013-08-04 10:12:00,
2013-08-04 06:17:00,58.1,51.6,29.85,NNW,338,0.0,0.2,79,0.00,,,0.00,WUHU216HW,2013-08-04 10:17:00,
2013-08-04 06:22:00,58.0,51.5,29.85,West,270,0.4,0.4,79,0.00,,,0.00,WUHU216HW,2013-08-04 10:22:00,
2013-08-04 06:27:00,58.0,51.5,29.85,West,270,0.4,0.4,79,0.00,,,0.00,WUHU216HW,2013-08-04 10:27:00,
2013-08-04 06:32:00,58.0,51.5,29.85,West,270,0.0,0.4,79,0.00,,,0.00,WUHU216HW,2013-08-04 10:32:00,
2013-08-04 06:37:00,58.0,51.5,29.86,West,270,0.0,0.0,79,0.00,,,0.00,WUHU216HW,2013-08-04 10:37:00,
2013-08-04 06:42:00,58.0,51.5,29.86,West,270,0.0,0.0,79,0.00,,,0.00,WUHU216HW,2013-08-04 10:42:00,
2013-08-04 06:47:00,58.0,51.5,29.85,NNW,338,0.0,0.0,79,0.00,,,0.00,WUHU216HW,2013-08-04 10:47:00,
2013-08-04 06:52:00,58.1,51.6,29.86,NNW,338,0.0,0.0,79,0.00,,,0.00,WUHU216HW,2013-08-04 10:52:00,
2013-08-04 06:57:00,58.1,51.6,29.85,NNW,338,0.4,0.4,79,0.00,,,0.00,WUHU216HW,2013-08-04 10:57:00,
2013-08-04 07:02:00,58.1,51.6,29.86,NNW,338,0.7,0.7,79,0.00,,,0.00,WUHU216HW,2013-08-04 11:02:00,
2013-08-04 07:07:00,58.3,51.8,29.86,West,270,1.1,1.3,79,0.00,,,0.00,WUHU216HW,2013-08-04 11:07:00,
2013-08-04 07:12:00,58.3,51.8,29.86,NW,315,0.4,1.3,79,0.00,,,0.00,WUHU216HW,2013-08-04 11:12:00,
2013-08-04 07:17:00,58.5,52.0,29.86,NNW,338,1.3,2.0,79,0.00,,,0.00,WUHU216HW,2013-08-04 11:17:00,
2013-08-04 07:22:00,58.7,52.2,29.86,WSW,248,1.8,2.2,79,0.00,,,0.00,WUHU216HW,2013-08-04 11:22:00,
2013-08-04 07:27:00,58.9,52.4,29.86,West,270,1.8,2.2,79,0.00,,,0.00,WUHU216HW,2013-08-04 11:27:00,
2013-08-04 07:32:00,59.2,52.7,29.86,WSW,257,1.1,1.8,79,0.00,,,0.00,WUHU216HW,2013-08-04 11:32:00,
2013-08-04 07:37:00,59.4,52.9,29.86,SW,222,1.3,3.8,79,0.00,,,0.00,WUHU216HW,2013-08-04 11:37:00,
2013-08-04 07:42:00,59.6,53.1,29.86,WSW,248,3.4,3.8,79,0.00,,,0.00,WUHU216HW,2013-08-04 11:42:00,
2013-08-04 07:47:00,59.8,53.0,29.86,WSW,248,0.7,3.4,78,0.00,,,0.00,WUHU216HW,2013-08-04 11:47:00,
2013-08-04 07:52:00,60.1,53.3,29.86,SSE,158,0.0,2.5,78,0.00,,,0.00,WUHU216HW,2013-08-04 11:52:00,
2013-08-04 07:57:00,60.3,53.5,29.87,SW,225,0.4,3.8,78,0.00,,,0.00,WUHU216HW,2013-08-04 11:57:00,
2013-08-04 08:02:00,60.5,53.6,29.86,SE,135,0.6,3.8,78,0.00,,,0.00,WUHU216HW,2013-08-04 12:02:00,
2013-08-04 08:07:00,60.8,53.9,29.86,NE,45,0.9,1.6,78,0.00,,,0.00,WUHU216HW,2013-08-04 12:07:00,
2013-08-04 08:12:00,61.0,54.1,29.86,WSW,248,1.8,1.8,78,0.00,,,0.00,WUHU216HW,2013-08-04 12:12:00,
2013-08-04 08:17:00,61.6,54.7,29.86,SSW,206,1.8,4.3,78,0.00,,,0.00,WUHU216HW,2013-08-04 12:17:00,
2013-08-04 08:22:00,61.9,54.7,29.86,WSW,255,1.8,4.3,77,0.00,,,0.00,WUHU216HW,2013-08-04 12:22:00,
2013-08-04 08:27:00,62.3,55.1,29.86,WSW,258,3.0,3.1,77,0.00,,,0.00,WUHU216HW,2013-08-04 12:27:00,
2013-08-04 08:32:00,62.6,55.4,29.86,West,270,4.7,4.7,77,0.00,,,0.00,WUHU216HW,2013-08-04 12:32:00,
2013-08-04 08:37:00,63.0,55.4,29.86,West,270,2.5,4.7,76,0.00,,,0.00,WUHU216HW,2013-08-04 12:37:00,
2013-08-04 08:42:00,63.4,55.8,29.86,NNW,344,3.1,4.7,76,0.00,,,0.00,WUHU216HW,2013-08-04 12:42:00,
2013-08-04 08:47:00,63.7,56.1,29.86,NNW,329,2.8,4.5,76,0.00,,,0.00,WUHU216HW,2013-08-04 12:47:00,
2013-08-04 08:52:00,64.1,56.1,29.86,WNW,293,4.8,5.8,75,0.00,,,0.00,WUHU216HW,2013-08-04 12:52:00,
2013-08-04 08:57:00,64.4,56.8,29.86,NW,312,1.8,5.8,76,0.00,,,0.00,WUHU216HW,2013-08-04 12:57:00,
2013-08-04 09:02:00,65.0,57.4,29.85,SSW,209,2.2,5.4,76,0.00,,,0.00,WUHU216HW,2013-08-04 13:02:00,
2013-08-04 09:07:00,65.2,57.2,29.85,WSW,248,4.0,5.4,75,0.00,,,0.00,WUHU216HW,2013-08-04 13:07:00,
2013-08-04 09:12:00,65.5,57.5,29.85,WNW,293,3.6,4.0,75,0.00,,,0.00,WUHU216HW,2013-08-04 13:12:00,
2013-08-04 09:17:00,65.9,57.5,29.85,West,270,3.6,5.8,74,0.00,,,0.00,WUHU216HW,2013-08-04 13:17:00,
2013-08-04 09:22:00,66.2,57.8,29.85,NW,315,3.8,5.8,74,0.00,,,0.00,WUHU216HW,2013-08-04 13:22:00,
2013-08-04 09:27:00,66.4,58.0,29.86,NNW,338,2.2,4.5,74,0.00,,,0.00,WUHU216HW,2013-08-04 13:27:00,
2013-08-04 09:32:00,66.6,58.2,29.86,NNE,23,2.2,4.5,74,0.00,,,0.00,WUHU216HW,2013-08-04 13:32:00,
2013-08-04 09:37:00,66.8,58.1,29.86,NW,315,1.0,3.4,73,0.00,,,0.00,WUHU216HW,2013-08-04 13:37:00,
2013-08-04 09:42:00,67.0,58.3,29.86,NNW,347,3.3,3.6,73,0.00,,,0.00,WUHU216HW,2013-08-04 13:42:00,
2013-08-04 09:47:00,67.3,58.5,29.86,SW,225,2.9,3.6,73,0.00,,,0.00,WUHU216HW,2013-08-04 13:47:00,
2013-08-04 09:52:00,67.7,58.6,29.86,West,276,1.7,3.4,72,0.00,,,0.00,WUHU216HW,2013-08-04 13:52:00,
2013-08-04 09:57:00,67.9,59.1,29.86,South,188,1.1,3.4,73,0.00,,,0.00,WUHU216HW,2013-08-04 13:57:00,
2013-08-04 10:02:00,67.9,58.8,29.86,North,0,2.3,3.4,72,0.00,,,0.00,WUHU216HW,2013-08-04 14:02:00,
2013-08-04 10:07:00,68.0,58.9,29.86,NW,315,1.8,3.6,72,0.00,,,0.00,WUHU216HW,2013-08-04 14:07:00,
2013-08-04 10:12:00,68.6,59.1,29.86,West,269,2.3,3.6,71,0.00,,,0.00,WUHU216HW,2013-08-04 14:12:00,
2013-08-04 10:17:00,68.9,59.0,29.86,NNE,23,2.0,3.4,70,0.00,,,0.00,WUHU216HW,2013-08-04 14:17:00,
2013-08-04 10:22:00,69.1,59.6,29.87,West,270,1.6,2.7,71,0.00,,,0.00,WUHU216HW,2013-08-04 14:22:00,
2013-08-04 10:27:00,69.5,59.6,29.86,SW,225,3.1,5.4,70,0.00,,,0.00,WUHU216HW,2013-08-04 14:27:00,
2013-08-04 10:32:00,69.8,59.9,29.86,North,0,1.8,5.4,70,0.00,,,0.00,WUHU216HW,2013-08-04 14:32:00,
2013-08-04 10:37:00,70.0,60.1,29.86,North,0,2.5,2.5,70,0.00,,,0.00,WUHU216HW,2013-08-04 14:37:00,
2013-08-04 10:42:00,70.2,59.1,29.87,West,269,3.9,4.0,67,0.00,,,0.00,WUHU216HW,2013-08-04 14:42:00,
2013-08-04 10:47:00,70.4,59.7,29.87,NE,45,3.4,4.0,68,0.00,,,0.00,WUHU216HW,2013-08-04 14:47:00,
2013-08-04 10:52:00,70.6,59.9,29.87,WSW,248,4.3,4.3,68,0.00,,,0.00,WUHU216HW,2013-08-04 14:52:00,
2013-08-04 10:57:00,70.9,59.8,29.87,NW,315,2.7,4.9,67,0.00,,,0.00,WUHU216HW,2013-08-04 14:57:00,
2013-08-04 11:02:00,71.3,60.2,29.87,NNW,329,3.9,4.9,67,0.00,,,0.00,WUHU216HW,2013-08-04 15:02:00,
2013-08-04 11:07:00,71.5,59.6,29.87,WSW,248,4.8,6.7,66,0.00,,,0.00,WUHU216HW,2013-08-04 15:07:00,
2013-08-04 11:12:00,71.6,59.2,29.87,SW,230,0.9,6.7,65,0.00,,,0.00,WUHU216HW,2013-08-04 15:12:00,
2013-08-04 11:17:00,71.6,59.2,29.86,WSW,248,3.7,4.0,65,0.00,,,0.00,WUHU216HW,2013-08-04 15:17:00,
2013-08-04 11:22:00,71.8,60.2,29.86,South,180,2.0,4.0,67,0.00,,,0.00,WUHU216HW,2013-08-04 15:22:00,
2013-08-04 11:27:00,71.8,60.2,29.86,West,270,1.4,3.4,67,0.00,,,0.00,WUHU216HW,2013-08-04 15:27:00,
2013-08-04 11:32:00,72.0,60.0,29.86,WNW,293,3.4,3.4,66,0.00,,,0.00,WUHU216HW,2013-08-04 15:32:00,
2013-08-04 11:37:00,72.2,59.4,29.86,SW,225,5.4,5.4,64,0.00,,,0.00,WUHU216HW,2013-08-04 15:37:00,
2013-08-04 11:42:00,72.4,59.6,29.86,WSW,248,5.1,6.0,64,0.00,,,0.00,WUHU216HW,2013-08-04 15:42:00,
2013-08-04 11:47:00,72.7,59.9,29.86,NW,315,2.5,6.0,64,0.00,,,0.00,WUHU216HW,2013-08-04 15:47:00,
2013-08-04 11:52:00,72.7,59.9,29.86,WSW,248,3.4,5.4,64,0.00,,,0.00,WUHU216HW,2013-08-04 15:52:00,
2013-08-04 11:57:00,72.9,59.6,29.86,WSW,248,2.0,4.3,63,0.00,,,0.00,WUHU216HW,2013-08-04 15:57:00,
2013-08-04 12:02:00,73.1,59.8,29.86,SW,232,4.3,6.0,63,0.00,,,0.00,WUHU216HW,2013-08-04 16:02:00,
2013-08-04 12:07:00,73.3,60.0,29.85,NNE,23,0.9,6.0,63,0.00,,,0.00,WUHU216HW,2013-08-04 16:07:00,
2013-08-04 12:12:00,73.4,60.5,29.85,North,0,0.4,3.8,64,0.00,,,0.00,WUHU216HW,2013-08-04 16:12:00,
2013-08-04 12:17:00,73.4,60.1,29.85,WSW,255,2.8,3.6,63,0.00,,,0.00,WUHU216HW,2013-08-04 16:17:00,
2013-08-04 12:22:00,73.4,60.1,29.85,NNW,338,5.1,5.1,63,0.00,,,0.00,WUHU216HW,2013-08-04 16:22:00,
2013-08-04 12:27:00,73.8,60.1,29.85,WSW,238,3.3,6.3,62,0.00,,,0.00,WUHU216HW,2013-08-04 16:27:00,
2013-08-04 12:32:00,74.2,59.6,29.85,West,277,1.9,6.3,60,0.00,,,0.00,WUHU216HW,2013-08-04 16:32:00,
2013-08-04 12:37:00,74.2,59.6,29.85,WSW,248,4.0,5.4,60,0.00,,,0.00,WUHU216HW,2013-08-04 16:37:00,
2013-08-04 12:42:00,74.5,58.9,29.85,WNW,293,4.5,6.7,58,0.00,,,0.00,WUHU216HW,2013-08-04 16:42:00,
2013-08-04 12:47:00,74.9,59.3,29.85,WSW,248,7.8,7.8,58,0.00,,,0.00,WUHU216HW,2013-08-04 16:47:00,
2013-08-04 12:52:00,75.2,59.6,29.85,WNW,293,3.0,7.8,58,0.00,,,0.00,WUHU216HW,2013-08-04 16:52:00,
2013-08-04 12:57:00,75.1,59.9,29.84,NNW,329,4.4,7.4,59,0.00,,,0.00,WUHU216HW,2013-08-04 16:57:00,
2013-08-04 13:02:00,74.9,60.2,29.84,WNW,293,4.7,6.3,60,0.00,,,0.00,WUHU216HW,2013-08-04 17:02:00,
2013-08-04 13:07:00,74.9,60.2,29.84,WSW,248,2.5,4.7,60,0.00,,,0.00,WUHU216HW,2013-08-04 17:07:00,
2013-08-04 13:12:00,75.1,59.5,29.84,SW,233,3.3,4.5,58,0.00,,,0.00,WUHU216HW,2013-08-04 17:12:00,
2013-08-04 13:17:00,75.4,60.2,29.84,West,263,2.9,4.5,59,0.00,,,0.00,WUHU216HW,2013-08-04 17:17:00,
2013-08-04 13:22:00,75.8,60.1,29.84,North,9,4.3,5.6,58,0.00,,,0.00,WUHU216HW,2013-08-04 17:22:00,
2013-08-04 13:27:00,76.1,59.9,29.84,WNW,283,3.3,5.6,57,0.00,,,0.00,WUHU216HW,2013-08-04 17:27:00,
2013-08-04 13:32:00,76.3,59.7,29.83,SSW,197,1.6,4.3,56,0.00,,,0.00,WUHU216HW,2013-08-04 17:32:00,
2013-08-04 13:37:00,76.3,59.7,29.83,West,260,1.5,3.4,56,0.00,,,0.00,WUHU216HW,2013-08-04 17:37:00,
2013-08-04 13:42:00,76.3,59.7,29.83,WNW,284,2.5,4.0,56,0.00,,,0.00,WUHU216HW,2013-08-04 17:42:00,
2013-08-04 13:47:00,76.7,60.0,29.83,West,270,2.9,4.0,56,0.00,,,0.00,WUHU216HW,2013-08-04 17:47:00,
2013-08-04 13:52:00,77.4,58.7,29.83,WNW,293,6.0,7.6,52,0.00,,,0.00,WUHU216HW,2013-08-04 17:52:00,
2013-08-04 13:57:00,77.9,59.1,29.82,WSW,248,2.9,7.6,52,0.00,,,0.00,WUHU216HW,2013-08-04 17:57:00,
2013-08-04 14:02:00,78.3,59.0,29.82,West,266,2.5,6.5,51,0.00,,,0.00,WUHU216HW,2013-08-04 18:02:00,
2013-08-04 14:07:00,78.7,59.9,29.82,WNW,293,4.7,4.7,52,0.00,,,0.00,WUHU216HW,2013-08-04 18:07:00,
2013-08-04 14:12:00,79.0,59.1,29.82,West,270,6.3,6.3,50,0.00,,,0.00,WUHU216HW,2013-08-04 18:12:00,
2013-08-04 14:17:00,79.4,58.3,29.82,NNW,338,2.5,6.3,49,0.00,,,0.00,WUHU216HW,2013-08-04 18:17:00,
2013-08-04 14:22:00,79.2,59.3,29.82,WNW,284,1.5,6.3,50,0.00,,,0.00,WUHU216HW,2013-08-04 18:22:00,
2013-08-04 14:27:00,79.4,60.0,29.81,East,90,0.9,5.6,51,0.00,,,0.00,WUHU216HW,2013-08-04 18:27:00,
2013-08-04 14:32:00,79.2,58.2,29.82,West,270,6.7,8.5,49,0.00,,,0.00,WUHU216HW,2013-08-04 18:32:00,
2013-08-04 14:37:00,79.4,58.9,29.81,WSW,248,4.7,8.5,49,0.00,,,0.00,WUHU216HW,2013-08-04 18:37:00,
2013-08-04 14:42:00,79.9,58.2,29.81,WSW,239,6.7,8.1,48,0.00,,,0.00,WUHU216HW,2013-08-04 18:42:00,
2013-08-04 14:47:00,80.5,58.2,29.81,WNW,293,3.4,8.1,47,0.00,,,0.00,WUHU216HW,2013-08-04 18:47:00,
2013-08-04 14:52:00,81.0,59.2,29.81,West,271,5.1,5.4,48,0.00,,,0.00,WUHU216HW,2013-08-04 18:52:00,
2013-08-04 14:57:00,81.4,59.0,29.81,West,274,4.2,7.2,47,0.00,,,0.00,WUHU216HW,2013-08-04 18:57:00,
2013-08-04 15:02:00,81.7,59.9,29.81,SW,225,5.4,7.2,48,0.00,,,0.00,WUHU216HW,2013-08-04 19:02:00,
2013-08-04 15:07:00,82.1,60.3,29.81,West,270,1.3,5.4,48,0.00,,,0.00,WUHU216HW,2013-08-04 19:07:00,
2013-08-04 15:12:00,81.7,59.9,29.81,NNW,338,1.8,5.4,48,0.00,,,0.00,WUHU216HW,2013-08-04 19:12:00,
2013-08-04 15:17:00,81.9,60.1,29.81,NW,315,4.9,4.9,48,0.00,,,0.00,WUHU216HW,2013-08-04 19:17:00,
2013-08-04 15:22:00,82.4,59.9,29.82,West,270,6.9,6.9,47,0.00,,,0.00,WUHU216HW,2013-08-04 19:22:00,
2013-08-04 15:27:00,82.6,59.5,29.82,NNW,338,5.1,6.9,46,0.00,,,0.00,WUHU216HW,2013-08-04 19:27:00,
2013-08-04 15:33:00,82.3,58.6,29.82,NW,315,5.8,6.9,45,0.00,,,0.00,WUHU216HW,2013-08-04 19:33:00,
2013-08-04 15:38:00,82.4,59.3,29.82,NW,315,3.4,5.8,46,0.00,,,0.00,WUHU216HW,2013-08-04 19:38:00,
2013-08-04 15:42:00,82.6,60.1,29.81,NNW,338,2.5,5.8,47,0.00,,,0.00,WUHU216HW,2013-08-04 19:42:00,
2013-08-04 15:47:00,82.8,59.7,29.81,NW,322,2.8,3.4,46,0.00,,,0.00,WUHU216HW,2013-08-04 19:47:00,
2013-08-04 15:53:00,82.8,59.7,29.81,NNW,338,3.6,8.3,46,0.00,,,0.00,WUHU216HW,2013-08-04 19:53:00,
2013-08-04 15:58:00,83.0,58.7,29.81,West,270,3.4,8.3,44,0.00,,,0.00,WUHU216HW,2013-08-04 19:58:00,
2013-08-04 16:03:00,83.0,58.7,29.81,West,273,6.8,8.3,44,0.00,,,0.00,WUHU216HW,2013-08-04 20:03:00,
2013-08-04 16:08:00,83.2,60.7,29.81,NNW,338,6.0,8.3,47,0.00,,,0.00,WUHU216HW,2013-08-04 20:08:00,
2013-08-04 16:13:00,83.5,61.5,29.81,NNE,16,3.1,6.0,48,0.00,,,0.00,WUHU216HW,2013-08-04 20:13:00,
2013-08-04 16:17:00,83.7,60.5,29.81,WNW,293,4.0,6.0,46,0.00,,,0.00,WUHU216HW,2013-08-04 20:17:00,
2013-08-04 16:23:00,83.7,61.1,29.81,WSW,258,3.0,4.0,47,0.00,,,0.00,WUHU216HW,2013-08-04 20:23:00,
2013-08-04 16:28:00,83.5,60.3,29.81,NW,315,3.4,4.0,46,0.00,,,0.00,WUHU216HW,2013-08-04 20:28:00,
2013-08-04 16:33:00,83.2,60.7,29.81,NNW,338,2.5,3.8,47,0.00,,,0.00,WUHU216HW,2013-08-04 20:33:00,
2013-08-04 16:38:00,83.0,59.9,29.81,NW,315,2.5,3.4,46,0.00,,,0.00,WUHU216HW,2013-08-04 20:38:00,
2013-08-04 16:43:00,82.4,60.5,29.81,WNW,293,2.0,2.5,48,0.00,,,0.00,WUHU216HW,2013-08-04 20:43:00,
2013-08-04 16:48:00,82.1,59.7,29.81,West,265,1.5,2.5,47,0.00,,,0.00,WUHU216HW,2013-08-04 20:48:00,
2013-08-04 16:52:00,81.5,59.1,29.81,SW,225,2.5,2.5,47,0.00,,,0.00,WUHU216HW,2013-08-04 20:52:00,
2013-08-04 16:58:00,81.0,59.2,29.81,WSW,248,0.8,2.5,48,0.00,,,0.00,WUHU216HW,2013-08-04 20:58:00,
2013-08-04 17:03:00,80.6,59.4,29.82,NW,315,2.5,2.5,49,0.00,,,0.00,WUHU216HW,2013-08-04 21:03:00,
2013-08-04 17:08:00,80.3,59.2,29.83,NW,315,2.7,3.1,49,0.00,,,0.00,WUHU216HW,2013-08-04 21:08:00,
2013-08-04 17:13:00,79.6,60.2,29.83,NW,315,2.2,3.8,51,0.00,,,0.00,WUHU216HW,2013-08-04 21:13:00,
2013-08-04 17:17:00,78.5,60.7,29.84,NW,315,5.8,5.8,54,0.00,,,0.00,WUHU216HW,2013-08-04 21:17:00,
2013-08-04 17:22:00,77.8,61.5,29.84,NNW,338,1.3,5.8,57,0.00,,,0.00,WUHU216HW,2013-08-04 21:22:00,
2013-08-04 17:28:00,76.7,61.0,29.84,WNW,293,3.6,5.8,58,0.00,,,0.00,WUHU216HW,2013-08-04 21:28:00,
2013-08-04 17:33:00,76.5,62.2,29.83,North,0,4.0,4.0,61,0.00,,,0.00,WUHU216HW,2013-08-04 21:33:00,
2013-08-04 17:37:00,76.3,62.0,29.84,WNW,293,2.0,4.7,61,0.00,,,0.00,WUHU216HW,2013-08-04 21:37:00,
2013-08-04 17:43:00,76.0,61.7,29.84,NNE,23,1.8,4.7,61,0.00,,,0.00,WUHU216HW,2013-08-04 21:43:00,
2013-08-04 17:48:00,75.6,61.8,29.84,North,11,1.2,2.0,62,0.00,,,0.00,WUHU216HW,2013-08-04 21:48:00,
2013-08-04 17:49:00,75.6,61.8,29.84,SW,225,1.1,2.0,62,0.00,,,0.00,WUHU216HW,2013-08-04 21:49:00,
2013-08-04 17:54:00,75.6,61.8,29.84,WNW,293,1.8,2.0,62,0.00,,,0.00,WUHU216HW,2013-08-04 21:54:00,
2013-08-04 17:59:00,75.6,61.8,29.84,North,0,2.5,2.5,62,0.00,,,0.00,WUHU216HW,2013-08-04 21:59:00,
2013-08-04 18:04:00,75.6,61.8,29.84,NNW,338,2.2,2.5,62,0.00,,,0.00,WUHU216HW,2013-08-04 22:04:00,
2013-08-04 18:09:00,75.2,61.8,29.84,NW,315,1.1,2.5,63,0.00,,,0.00,WUHU216HW,2013-08-04 22:09:00,
2013-08-04 18:14:00,75.1,61.7,29.84,NNE,12,1.0,1.1,63,0.00,,,0.00,WUHU216HW,2013-08-04 22:14:00,
2013-08-04 18:19:00,75.1,61.7,29.84,NE,45,1.8,1.8,63,0.00,,,0.00,WUHU216HW,2013-08-04 22:19:00,
2013-08-04 18:24:00,74.9,61.5,29.84,West,270,1.1,1.8,63,0.00,,,0.00,WUHU216HW,2013-08-04 22:24:00,
2013-08-04 18:29:00,74.9,61.5,29.84,NNE,23,1.1,1.8,63,0.00,,,0.00,WUHU216HW,2013-08-04 22:29:00,
2013-08-04 18:34:00,74.9,61.5,29.84,NW,315,0.7,1.1,63,0.00,,,0.00,WUHU216HW,2013-08-04 22:34:00,
2013-08-04 18:39:00,74.7,60.9,29.85,North,0,2.0,2.0,62,0.00,,,0.00,WUHU216HW,2013-08-04 22:39:00,
2013-08-04 18:44:00,74.5,60.7,29.85,NW,315,0.7,2.0,62,0.00,,,0.00,WUHU216HW,2013-08-04 22:44:00,
2013-08-04 18:49:00,74.5,61.2,29.85,NNW,338,0.4,2.0,63,0.00,,,0.00,WUHU216HW,2013-08-04 22:49:00,
2013-08-04 18:54:00,74.0,60.7,29.85,NW,315,1.1,1.1,63,0.00,,,0.00,WUHU216HW,2013-08-04 22:54:00,
2013-08-04 18:59:00,73.8,60.5,29.86,NW,315,0.6,1.1,63,0.00,,,0.00,WUHU216HW,2013-08-04 22:59:00,
2013-08-04 19:04:00,73.4,60.1,29.86,NW,315,1.1,1.1,63,0.00,,,0.00,WUHU216HW,2013-08-04 23:04:00,
2013-08-04 19:09:00,73.4,60.5,29.86,NNW,338,0.9,1.1,64,0.00,,,0.00,WUHU216HW,2013-08-04 23:09:00,
2013-08-04 19:14:00,73.4,60.5,29.86,NNW,338,0.0,1.1,64,0.00,,,0.00,WUHU216HW,2013-08-04 23:14:00,
2013-08-04 19:19:00,73.3,60.9,29.86,NNW,338,0.0,0.9,65,0.00,,,0.00,WUHU216HW,2013-08-04 23:19:00,
2013-08-04 19:24:00,73.1,61.1,29.86,NNW,338,0.0,0.0,66,0.00,,,0.00,WUHU216HW,2013-08-04 23:24:00,
2013-08-04 19:29:00,72.7,60.7,29.86,NNW,338,0.4,0.4,66,0.00,,,0.00,WUHU216HW,2013-08-04 23:29:00,
2013-08-04 19:34:00,72.7,61.1,29.86,NW,315,0.0,0.4,67,0.00,,,0.00,WUHU216HW,2013-08-04 23:34:00,
2013-08-04 19:39:00,72.4,60.8,29.86,NNW,338,0.0,0.4,67,0.00,,,0.00,WUHU216HW,2013-08-04 23:39:00,
2013-08-04 19:44:00,72.2,61.0,29.86,NNW,338,0.4,1.1,67,0.00,,,0.00,WUHU216HW,2013-08-04 23:44:00,
2013-08-04 19:49:00,72.0,60.8,29.86,NW,315,1.1,1.1,67,0.00,,,0.00,WUHU216HW,2013-08-04 23:49:00,
2013-08-04 19:54:00,71.6,60.0,29.86,NNW,338,0.4,1.1,67,0.00,,,0.00,WUHU216HW,2013-08-04 23:54:00,
2013-08-04 19:59:00,71.6,60.0,29.87,NW,315,1.1,1.1,67,0.00,,,0.00,WUHU216HW,2013-08-04 23:59:00,
2013-08-04 20:04:00,71.5,60.3,29.87,WNW,299,0.6,1.1,67,0.00,,,0.00,WUHU216HW,2013-08-05 00:04:00,
2013-08-04 20:09:00,71.5,60.3,29.88,NW,315,0.4,0.9,67,0.00,,,0.00,WUHU216HW,2013-08-05 00:09:00,
2013-08-04 20:14:00,71.3,60.2,29.89,NNW,338,1.1,1.1,67,0.00,,,0.00,WUHU216HW,2013-08-05 00:14:00,
2013-08-04 20:19:00,71.3,60.2,29.89,NNW,338,0.9,1.1,67,0.00,,,0.00,WUHU216HW,2013-08-05 00:19:00,
2013-08-04 20:24:00,70.9,59.8,29.89,North,0,0.7,0.9,67,0.00,,,0.00,WUHU216HW,2013-08-05 00:24:00,
2013-08-04 20:29:00,70.7,59.2,29.89,NNW,338,1.8,1.8,67,0.00,,,0.00,WUHU216HW,2013-08-05 00:29:00,
2013-08-04 20:34:00,70.6,59.1,29.89,NNW,338,1.3,1.8,67,0.00,,,0.00,WUHU216HW,2013-08-05 00:34:00,
2013-08-04 20:39:00,70.4,59.3,29.89,NNW,338,0.9,1.8,67,0.00,,,0.00,WUHU216HW,2013-08-05 00:39:00,
2013-08-04 20:44:00,70.0,58.9,29.89,WNW,293,0.4,1.3,67,0.00,,,0.00,WUHU216HW,2013-08-05 00:44:00,
2013-08-04 20:49:00,69.7,58.6,29.89,NW,315,0.2,1.1,67,0.00,,,0.00,WUHU216HW,2013-08-05 00:49:00,
2013-08-04 20:54:00,69.7,58.6,29.89,WNW,293,0.0,0.2,67,0.00,,,0.00,WUHU216HW,2013-08-05 00:54:00,
2013-08-04 20:59:00,69.3,58.2,29.89,West,270,0.4,0.4,67,0.00,,,0.00,WUHU216HW,2013-08-05 00:59:00,
2013-08-04 21:04:00,69.1,58.4,29.89,West,270,0.0,0.4,68,0.00,,,0.00,WUHU216HW,2013-08-05 01:04:00,
2013-08-04 21:09:00,68.8,58.1,29.90,West,270,1.1,1.1,68,0.00,,,0.00,WUHU216HW,2013-08-05 01:09:00,
2013-08-04 21:14:00,68.4,57.8,29.90,West,279,0.6,1.1,68,0.00,,,0.00,WUHU216HW,2013-08-05 01:14:00,
2013-08-04 21:19:00,68.2,58.0,29.90,NW,315,1.1,1.1,69,0.00,,,0.00,WUHU216HW,2013-08-05 01:19:00,
2013-08-04 21:24:00,68.0,57.8,29.90,NW,315,0.2,1.1,69,0.00,,,0.00,WUHU216HW,2013-08-05 01:24:00,
2013-08-04 21:29:00,67.9,57.7,29.90,WNW,293,0.4,1.1,69,0.00,,,0.00,WUHU216HW,2013-08-05 01:29:00,
2013-08-04 21:34:00,67.3,57.5,29.90,NNW,338,1.1,1.1,70,0.00,,,0.00,WUHU216HW,2013-08-05 01:34:00,
2013-08-04 21:39:00,67.0,57.2,29.90,NW,315,0.7,1.6,70,0.00,,,0.00,WUHU216HW,2013-08-05 01:39:00,
2013-08-04 21:44:00,67.0,57.2,29.90,WNW,293,0.9,1.6,70,0.00,,,0.00,WUHU216HW,2013-08-05 01:44:00,
2013-08-04 21:49:00,66.8,57.0,29.90,NW,315,0.0,0.9,70,0.00,,,0.00,WUHU216HW,2013-08-05 01:49:00,
2013-08-04 21:54:00,66.6,56.8,29.91,WNW,293,0.0,0.7,70,0.00,,,0.00,WUHU216HW,2013-08-05 01:54:00,
2013-08-04 21:59:00,66.4,56.6,29.91,WNW,293,0.2,0.4,70,0.00,,,0.00,WUHU216HW,2013-08-05 01:59:00,
2013-08-04 22:04:00,66.2,56.4,29.91,WNW,293,0.2,0.4,70,0.00,,,0.00,WUHU216HW,2013-08-05 02:04:00,
2013-08-04 22:09:00,65.9,56.1,29.91,West,278,0.6,1.1,70,0.00,,,0.00,WUHU216HW,2013-08-05 02:09:00,
2013-08-04 22:14:00,65.7,56.3,29.91,WNW,293,0.6,1.1,71,0.00,,,0.00,WUHU216HW,2013-08-05 02:14:00,
2013-08-04 22:19:00,65.5,56.1,29.91,NW,315,0.2,0.9,71,0.00,,,0.00,WUHU216HW,2013-08-05 02:19:00,
2013-08-04 22:24:00,65.2,55.8,29.91,West,270,0.0,0.9,71,0.00,,,0.00,WUHU216HW,2013-08-05 02:24:00,
2013-08-04 22:29:00,65.0,55.6,29.91,West,259,0.8,1.1,71,0.00,,,0.00,WUHU216HW,2013-08-05 02:29:00,
2013-08-04 22:34:00,64.8,55.8,29.91,NW,315,1.1,1.6,72,0.00,,,0.00,WUHU216HW,2013-08-05 02:34:00,
2013-08-04 22:39:00,64.4,55.4,29.91,NNW,338,1.3,1.6,72,0.00,,,0.00,WUHU216HW,2013-08-05 02:39:00,
2013-08-04 22:44:00,64.3,55.3,29.91,NW,315,2.0,2.0,72,0.00,,,0.00,WUHU216HW,2013-08-05 02:44:00,
2013-08-04 22:49:00,64.1,55.1,29.92,WNW,293,1.8,2.5,72,0.00,,,0.00,WUHU216HW,2013-08-05 02:49:00,
2013-08-04 22:54:00,63.7,55.1,29.92,NNW,328,2.2,2.5,73,0.00,,,0.00,WUHU216HW,2013-08-05 02:54:00,
2013-08-04 22:59:00,63.5,54.9,29.92,WNW,293,2.9,2.9,73,0.00,,,0.00,WUHU216HW,2013-08-05 02:59:00,
2013-08-04 23:04:00,63.4,54.4,29.92,NW,309,0.8,2.9,72,0.00,,,0.00,WUHU216HW,2013-08-05 03:04:00,
2013-08-04 23:09:00,63.4,54.4,29.92,NW,315,1.8,2.0,72,0.00,,,0.00,WUHU216HW,2013-08-05 03:09:00,
2013-08-04 23:14:00,63.4,54.4,29.92,NW,315,0.6,1.8,72,0.00,,,0.00,WUHU216HW,2013-08-05 03:14:00,
2013-08-04 23:19:00,63.4,54.4,29.92,NNW,338,0.7,1.1,72,0.00,,,0.00,WUHU216HW,2013-08-05 03:19:00,
2013-08-04 23:24:00,63.4,54.4,29.93,WNW,293,2.0,2.0,72,0.00,,,0.00,WUHU216HW,2013-08-05 03:24:00,
2013-08-04 23:29:00,63.2,54.2,29.92,NNW,338,1.1,2.0,72,0.00,,,0.00,WUHU216HW,2013-08-05 03:29:00,
2013-08-04 23:34:00,63.0,54.0,29.92,NNW,327,1.2,1.8,72,0.00,,,0.00,WUHU216HW,2013-08-05 03:34:00,
2013-08-04 23:39:00,63.0,54.0,29.93,NNW,338,1.1,1.8,72,0.00,,,0.00,WUHU216HW,2013-08-05 03:39:00,
2013-08-04 23:44:00,62.8,53.8,29.93,NW,315,0.6,1.3,72,0.00,,,0.00,WUHU216HW,2013-08-05 03:44:00,
2013-08-04 23:49:00,62.6,53.7,29.93,West,276,0.8,1.1,72,0.00,,,0.00,WUHU216HW,2013-08-05 03:49:00,
2013-08-04 23:54:00,62.5,53.6,29.93,WNW,293,1.1,1.1,72,0.00,,,0.00,WUHU216HW,2013-08-05 03:54:00,
2013-08-04 23:59:00,62.6,53.7,29.93,WSW,248,0.2,1.3,72,0.00,,,0.00,WUHU216HW,2013-08-05 03:59:00,